createdAt,value
2023-03-23T15:59:08.760Z,31.63
2023-03-23T16:01:40.158Z,31.55
2023-03-23T16:04:12.199Z,33.30
2023-03-23T16:06:42.892Z,31.33
2023-03-23T16:09:20.012Z,31.88
2023-03-23T16:11:50.229Z,39.22
2023-03-23T16:14:20.472Z,34.50
2023-03-23T16:16:54.418Z,34.92
2023-03-23T16:19:25.967Z,34.88
2023-03-23T16:21:56.134Z,33.65
2023-03-23T16:24:26.296Z,36.50
2023-03-23T16:26:57.040Z,34.13
2023-03-23T16:29:46.821Z,36.58
2023-03-23T16:32:17.884Z,35.70
2023-03-23T16:34:48.750Z,37.08
2023-03-23T16:37:18.908Z,35.75
2023-03-23T16:39:49.098Z,37.05
2023-03-23T16:42:19.941Z,37.78
2023-03-23T16:44:52.276Z,37.08
2023-03-23T16:47:25.012Z,37.20
2023-03-23T16:49:55.639Z,38.03
2023-03-23T16:52:26.075Z,38.33
2023-03-23T16:54:56.458Z,37.47
2023-03-23T16:57:26.755Z,37.08
2023-03-23T17:00:02.376Z,37.25
2023-03-23T17:02:32.627Z,37.50
2023-03-23T17:05:03.333Z,36.17
2023-03-23T17:07:33.772Z,36.88
2023-03-23T17:10:04.207Z,36.28
2023-03-23T17:12:34.384Z,35.83
2023-03-23T17:15:04.753Z,37.03
2023-03-23T17:17:35.633Z,37.30
2023-03-23T17:20:06.772Z,36.25
2023-03-23T17:22:36.972Z,35.88
2023-03-23T17:25:08.884Z,35.63
2023-03-23T17:27:39.626Z,37.58
2023-03-23T17:30:11.078Z,39.13
2023-03-23T17:32:41.736Z,36.38
2023-03-23T17:35:12.178Z,38.40
2023-03-23T17:37:43.436Z,37.67
2023-03-23T17:40:16.414Z,37.72
2023-03-23T17:42:48.297Z,36.97
2023-03-23T17:45:19.242Z,35.38
2023-03-23T17:47:49.455Z,36.58
2023-03-23T17:50:21.555Z,37.83
2023-03-23T17:52:52.082Z,36.80
2023-03-23T17:55:22.864Z,37.50
2023-03-23T17:57:53.472Z,37.17
2023-03-23T18:00:24.525Z,36.03
2023-03-23T18:02:54.752Z,37.22
2023-03-23T18:05:26.035Z,38.95
2023-03-23T18:07:57.282Z,38.38
2023-03-23T18:10:27.758Z,38.15
2023-03-23T18:12:57.934Z,38.30
2023-03-23T18:15:29.753Z,39.50
2023-03-23T18:18:00.406Z,39.42
2023-03-23T18:20:30.897Z,37.35
2023-03-23T18:23:01.336Z,41.22
2023-03-23T18:25:31.505Z,38.47
2023-03-23T18:28:06.176Z,39.75
2023-03-23T18:30:37.230Z,40.47
2023-03-23T18:33:07.983Z,41.03
2023-03-23T18:35:38.664Z,38.80
2023-03-23T18:38:08.912Z,40.05
2023-03-23T18:40:39.349Z,38.95
2023-03-23T18:43:09.585Z,39.50
2023-03-23T18:45:39.800Z,39.33
2023-03-23T18:48:11.161Z,40.35
2023-03-23T18:50:41.630Z,40.45
2023-03-23T18:53:12.073Z,40.83
2023-03-23T18:55:42.465Z,40.40
2023-03-23T18:58:14.784Z,40.70
2023-03-23T19:00:45.854Z,40.30
2023-03-23T19:03:16.747Z,39.90
2023-03-23T19:06:19.295Z,39.45
2023-03-23T19:08:51.194Z,40.40
2023-03-23T19:11:22.215Z,39.35
2023-03-23T19:14:01.710Z,40.90
2023-03-23T19:16:37.369Z,38.67
2023-03-23T19:19:09.921Z,38.17
2023-03-23T19:21:43.811Z,39.33
2023-03-23T19:24:16.075Z,40.08
2023-03-23T19:26:46.985Z,38.75
2023-03-23T19:29:26.571Z,39.28
2023-03-23T19:32:00.490Z,37.25
2023-03-23T19:34:32.172Z,36.25
2023-03-23T19:37:05.893Z,38.45
2023-03-23T19:39:42.920Z,37.25
2023-03-23T19:42:18.544Z,39.53
2023-03-23T19:44:49.061Z,38.53
2023-03-23T19:47:19.569Z,35.72
2023-03-23T19:49:51.403Z,38.13
2023-03-23T19:52:22.623Z,36.70
2023-03-23T19:54:53.241Z,36.63
2023-03-23T19:57:23.861Z,37.22
2023-03-23T19:59:54.093Z,38.35
2023-03-23T20:02:24.314Z,38.70
2023-03-23T20:04:55.140Z,38.47
2023-03-23T20:07:26.918Z,40.20
2023-03-23T20:09:57.473Z,40.22
2023-03-23T20:12:28.039Z,38.65
2023-03-23T20:15:00.314Z,38.92
2023-03-23T20:17:30.651Z,40.45
2023-03-23T20:20:01.557Z,40.40
2023-03-23T20:22:31.820Z,41.47
2023-03-23T20:25:01.971Z,41.78
2023-03-23T20:27:32.536Z,41.28
2023-03-23T20:30:04.194Z,41.08
2023-03-23T20:32:35.326Z,41.78
2023-03-23T20:35:07.986Z,41.67
2023-03-23T20:37:39.770Z,40.65
2023-03-23T20:40:12.611Z,40.78
2023-03-23T20:42:45.260Z,43.08
2023-03-23T20:45:16.102Z,41.50
2023-03-23T20:47:46.576Z,41.60
2023-03-23T20:50:16.739Z,41.58
2023-03-23T20:52:47.106Z,40.58
2023-03-23T20:55:17.216Z,41.85
2023-03-23T20:57:47.395Z,41.10
2023-03-23T21:00:19.436Z,42.85
2023-03-23T21:02:51.139Z,43.65
2023-03-23T21:05:22.125Z,43.33
2023-03-23T21:07:52.550Z,43.35
2023-03-23T21:10:27.133Z,43.53
2023-03-23T21:12:58.380Z,41.83
2023-03-23T21:15:29.351Z,40.85
2023-03-23T21:17:59.836Z,40.35
2023-03-23T21:20:30.452Z,40.03
2023-03-23T21:23:01.073Z,40.45
2023-03-23T21:25:34.165Z,40.45
2023-03-23T21:28:06.262Z,41.28
2023-03-23T21:30:36.713Z,39.42
2023-03-23T21:33:08.376Z,38.60
2023-03-23T21:35:39.230Z,38.47
2023-03-23T21:38:15.661Z,40.10
2023-03-23T21:40:46.777Z,39.30
2023-03-23T21:43:18.399Z,40.53
2023-03-23T21:45:48.868Z,39.10
2023-03-23T21:48:18.933Z,40.05
2023-03-23T21:50:49.456Z,39.92
2023-03-23T21:53:20.277Z,37.92
2023-03-23T21:55:55.242Z,38.22
2023-03-23T21:58:28.238Z,37.47
2023-03-23T22:01:00.601Z,38.90
2023-03-23T22:03:34.090Z,38.28
2023-03-23T22:06:12.050Z,38.83
2023-03-23T22:08:43.325Z,39.03
2023-03-23T22:11:16.366Z,39.90
2023-03-23T22:13:46.883Z,42.35
2023-03-23T22:16:19.253Z,39.58
2023-03-23T22:18:50.669Z,39.90
2023-03-23T22:21:23.500Z,40.45
2023-03-23T22:23:53.610Z,40.47
2023-03-23T22:26:24.363Z,41.83
2023-03-23T22:28:54.676Z,39.63
2023-03-23T22:31:26.491Z,39.80
2023-03-23T22:33:57.693Z,40.28
2023-03-23T22:36:28.934Z,41.40
2023-03-23T22:38:59.196Z,44.08
2023-03-23T22:41:31.295Z,43.63
2023-03-23T22:44:01.782Z,42.70
2023-03-23T22:46:32.051Z,41.42
2023-03-23T22:49:02.156Z,42.00
2023-03-23T22:51:33.126Z,43.08
2023-03-23T22:54:03.284Z,41.90
2023-03-23T22:56:33.559Z,42.38
2023-03-23T22:59:03.751Z,42.38
2023-03-23T23:01:34.332Z,41.53
2023-03-23T23:04:04.817Z,41.05
2023-03-23T23:06:35.300Z,43.30
2023-03-23T23:09:06.268Z,42.30
2023-03-23T23:11:36.970Z,45.00
2023-03-23T23:14:07.687Z,44.17
2023-03-23T23:16:37.831Z,44.53
2023-03-23T23:19:08.090Z,43.47
2023-03-23T23:21:38.432Z,43.75
2023-03-23T23:24:09.146Z,46.92
2023-03-23T23:26:39.007Z,46.85
2023-03-23T23:29:09.620Z,46.63
2023-03-23T23:31:42.825Z,45.70
2023-03-23T23:34:15.071Z,43.88
2023-03-23T23:36:45.241Z,46.28
2023-03-23T23:39:15.619Z,46.80
2023-03-23T23:41:46.151Z,47.28
2023-03-23T23:44:17.147Z,47.13
2023-03-23T23:46:47.965Z,47.00
2023-03-23T23:49:18.098Z,45.88
2023-03-23T23:51:48.274Z,41.22
2023-03-23T23:54:24.031Z,45.42
2023-03-23T23:56:54.855Z,45.88
2023-03-23T23:59:25.160Z,44.80
